createdAt,value
2023-02-15T00:01:24.492Z,1.81
2023-02-15T00:03:51.743Z,1.73
2023-02-15T00:06:18.693Z,1.71
2023-02-15T00:08:45.216Z,1.58
2023-02-15T00:11:16.579Z,1.46
2023-02-15T00:13:43.560Z,1.74
2023-02-15T00:16:12.594Z,1.46
2023-02-15T00:18:41.001Z,1.27
2023-02-15T00:21:10.284Z,1.29
2023-02-15T00:23:37.562Z,1.31
2023-02-15T00:26:12.126Z,1.34
2023-02-15T00:28:39.369Z,1.50
2023-02-15T00:31:11.286Z,1.57
2023-02-15T00:33:39.703Z,1.66
2023-02-15T00:36:09.454Z,1.85
2023-02-15T00:38:36.127Z,1.99
2023-02-15T00:41:04.934Z,1.86
2023-02-15T00:43:33.443Z,1.86
2023-02-15T00:46:01.947Z,2.06
2023-02-15T00:48:28.684Z,2.10
2023-02-15T00:50:59.665Z,2.01
2023-02-15T00:53:27.567Z,1.95
2023-02-15T00:55:54.316Z,1.95
2023-02-15T00:58:20.789Z,2.08
2023-02-15T01:00:48.669Z,2.13
2023-02-15T01:03:16.722Z,2.27
2023-02-15T01:05:43.323Z,2.49
2023-02-15T01:08:10.167Z,2.02
2023-02-15T01:10:37.165Z,2.25
2023-02-15T01:13:03.697Z,2.27
2023-02-15T01:15:30.247Z,2.24
2023-02-15T01:17:56.801Z,2.34
2023-02-15T01:20:26.312Z,2.32
2023-02-15T01:22:53.741Z,2.49
2023-02-15T01:25:22.781Z,2.32
2023-02-15T01:27:49.457Z,2.24
2023-02-15T01:30:16.766Z,2.44
2023-02-15T01:32:43.868Z,2.34
2023-02-15T01:35:11.410Z,2.41
2023-02-15T01:37:38.173Z,2.18
2023-02-15T01:40:07.530Z,2.26
2023-02-15T01:42:34.080Z,2.31
2023-02-15T01:45:22.614Z,2.25
2023-02-15T01:47:55.398Z,2.33
2023-02-15T01:50:38.563Z,2.32
2023-02-15T01:53:35.759Z,2.17
2023-02-15T01:56:07.777Z,2.27
2023-02-15T01:58:36.278Z,2.38
2023-02-15T02:01:04.920Z,2.38
2023-02-15T02:03:59.860Z,2.46
2023-02-15T02:06:27.724Z,2.39
2023-02-15T02:08:56.254Z,2.31
2023-02-15T02:11:23.429Z,2.25
2023-02-15T02:13:52.253Z,2.13
2023-02-15T02:16:26.464Z,2.12
2023-02-15T02:19:10.955Z,2.19
2023-02-15T02:22:01.857Z,2.13
2023-02-15T02:25:13.192Z,2.09
2023-02-15T02:27:45.517Z,2.10
2023-02-15T02:30:30.638Z,2.05
2023-02-15T02:33:09.576Z,2.01
2023-02-15T02:36:03.274Z,1.86
2023-02-15T02:38:45.151Z,1.78
2023-02-15T02:41:22.706Z,1.90
2023-02-15T02:44:13.955Z,1.94
2023-02-15T02:47:12.810Z,1.79
2023-02-15T02:49:41.531Z,1.84
2023-02-15T02:52:47.198Z,1.70
2023-02-15T02:55:57.093Z,1.67
2023-02-15T02:58:46.633Z,1.48
2023-02-15T03:01:25.159Z,1.71
2023-02-15T03:03:57.802Z,1.57
2023-02-15T03:06:34.349Z,1.45
2023-02-15T03:09:42.570Z,1.59
2023-02-15T03:12:15.228Z,1.57
2023-02-15T03:14:44.793Z,1.60
2023-02-15T03:17:13.571Z,1.59
2023-02-15T03:19:41.305Z,1.64
2023-02-15T03:22:16.034Z,1.66
2023-02-15T03:24:47.802Z,1.65
2023-02-15T03:27:23.309Z,1.59
2023-02-15T03:29:53.215Z,1.36
2023-02-15T03:32:20.605Z,1.55
2023-02-15T03:34:47.540Z,1.58
2023-02-15T03:37:41.840Z,1.51
2023-02-15T03:40:31.754Z,1.56
2023-02-15T03:43:10.163Z,1.60
2023-02-15T03:45:55.423Z,1.58
2023-02-15T03:48:34.407Z,1.41
2023-02-15T03:51:24.761Z,1.41
2023-02-15T03:53:52.105Z,1.34
2023-02-15T03:56:18.604Z,1.33
2023-02-15T03:59:03.766Z,1.39
2023-02-15T04:01:57.902Z,1.36
2023-02-15T04:04:27.337Z,1.25
2023-02-15T04:06:53.842Z,1.01
2023-02-15T04:09:39.029Z,1.22
2023-02-15T04:12:05.634Z,1.16
2023-02-15T04:14:50.662Z,1.18
2023-02-15T04:17:17.188Z,1.17
2023-02-15T04:20:02.189Z,1.08
2023-02-15T04:22:47.685Z,1.00
2023-02-15T04:25:14.274Z,1.02
2023-02-15T04:27:47.040Z,1.03
2023-02-15T04:30:15.396Z,0.99
2023-02-15T04:32:42.614Z,1.07
2023-02-15T04:35:10.208Z,1.16
2023-02-15T04:37:36.722Z,0.91
2023-02-15T04:40:04.983Z,0.90
2023-02-15T04:42:31.598Z,0.94
2023-02-15T04:44:58.130Z,0.84
2023-02-15T04:47:24.759Z,0.78
2023-02-15T04:49:51.251Z,0.79
2023-02-15T04:52:20.814Z,0.76
2023-02-15T04:54:47.488Z,0.75
2023-02-15T04:57:14.059Z,0.57
2023-02-15T04:59:40.592Z,0.58
2023-02-15T05:02:07.330Z,0.70
2023-02-15T05:04:33.784Z,0.64
2023-02-15T05:07:00.315Z,0.66
2023-02-15T05:09:26.868Z,0.64
2023-02-15T05:11:53.451Z,0.45
2023-02-15T05:14:20.084Z,0.64
2023-02-15T05:16:46.640Z,0.57
2023-02-15T05:19:13.149Z,0.50
2023-02-15T05:21:39.640Z,0.48
2023-02-15T05:24:26.363Z,0.52
2023-02-15T05:27:11.471Z,0.36
2023-02-15T05:29:37.951Z,0.36
2023-02-15T05:32:05.361Z,0.39
2023-02-15T05:34:32.035Z,0.39
2023-02-15T05:36:58.589Z,0.33
2023-02-15T05:39:25.131Z,0.20
2023-02-15T05:41:51.630Z,0.28
2023-02-15T05:44:18.169Z,0.32
2023-02-15T05:46:44.603Z,0.31
2023-02-15T05:49:11.104Z,0.31
2023-02-15T05:51:37.612Z,0.33
2023-02-15T05:54:04.159Z,0.42
2023-02-15T05:56:30.588Z,0.24
2023-02-15T05:58:57.090Z,0.27
2023-02-15T06:01:24.020Z,0.27
2023-02-15T06:03:50.964Z,0.33
2023-02-15T06:06:17.469Z,0.43
2023-02-15T06:08:44.209Z,0.33
2023-02-15T06:11:10.739Z,0.35
2023-02-15T06:13:38.977Z,0.33
2023-02-15T06:16:06.930Z,0.19
2023-02-15T06:18:33.614Z,0.22
2023-02-15T06:21:00.129Z,0.21
2023-02-15T06:23:26.669Z,0.29
2023-02-15T06:25:53.177Z,0.27
2023-02-15T06:28:19.612Z,0.12
2023-02-15T06:30:46.158Z,0.17
2023-02-15T06:33:12.700Z,0.19
2023-02-15T06:35:39.174Z,0.13
2023-02-15T06:38:05.673Z,0.10
2023-02-15T06:40:32.151Z,0.15
2023-02-15T06:42:58.619Z,0.08
2023-02-15T06:45:25.084Z,0.17
2023-02-15T06:47:51.552Z,0.18
2023-02-15T06:50:18.040Z,0.20
2023-02-15T06:52:44.518Z,0.20
2023-02-15T06:55:11.006Z,0.30
2023-02-15T06:57:37.580Z,0.31
2023-02-15T07:00:05.866Z,0.30
2023-02-15T07:02:34.189Z,0.20
2023-02-15T07:05:00.796Z,0.20
2023-02-15T07:07:27.336Z,0.27
2023-02-15T07:09:53.784Z,0.36
2023-02-15T07:12:38.821Z,0.43
2023-02-15T07:15:07.674Z,0.54
2023-02-15T07:17:36.285Z,0.40
2023-02-15T07:20:08.941Z,0.43
2023-02-15T07:22:37.209Z,0.47
2023-02-15T07:25:05.344Z,0.55
2023-02-15T07:27:32.957Z,0.67
2023-02-15T07:30:00.495Z,0.66
2023-02-15T07:32:30.871Z,0.78
2023-02-15T07:34:58.065Z,0.88
2023-02-15T07:37:24.805Z,1.02
2023-02-15T07:39:51.353Z,1.08
2023-02-15T07:42:18.833Z,1.18
2023-02-15T07:44:45.335Z,1.22
2023-02-15T07:47:12.998Z,1.48
2023-02-15T07:49:39.503Z,1.77
2023-02-15T07:52:06.014Z,1.87
2023-02-15T07:54:32.512Z,2.15
2023-02-15T07:56:59.005Z,2.27
2023-02-15T07:59:25.696Z,2.38
2023-02-15T08:01:53.922Z,2.25
2023-02-15T08:04:20.447Z,2.65
2023-02-15T08:06:46.977Z,2.80
2023-02-15T08:09:13.529Z,2.74
2023-02-15T08:11:43.686Z,2.81
2023-02-15T08:14:21.624Z,3.17
2023-02-15T08:16:50.629Z,3.50
2023-02-15T08:19:24.184Z,3.25
2023-02-15T08:22:00.547Z,3.44
2023-02-15T08:24:32.153Z,3.95
2023-02-15T08:26:59.463Z,4.40
2023-02-15T08:29:28.966Z,4.27
2023-02-15T08:31:59.982Z,4.96
2023-02-15T08:34:26.806Z,5.06
2023-02-15T08:36:53.330Z,5.13
2023-02-15T08:39:19.904Z,5.67
2023-02-15T08:41:48.232Z,6.18
2023-02-15T08:44:17.321Z,6.09
2023-02-15T08:46:45.798Z,6.30
2023-02-15T08:49:16.258Z,6.33
2023-02-15T08:51:43.073Z,6.33
2023-02-15T08:54:13.024Z,6.61
2023-02-15T08:56:41.542Z,6.73
2023-02-15T08:59:13.186Z,6.37
2023-02-15T09:01:40.370Z,6.90
2023-02-15T09:04:11.452Z,6.74
2023-02-15T09:06:39.665Z,6.73
2023-02-15T09:09:06.885Z,7.63
2023-02-15T09:11:39.274Z,7.57
2023-02-15T09:14:10.001Z,7.99
2023-02-15T09:16:38.728Z,7.57
2023-02-15T09:19:06.689Z,7.86
2023-02-15T09:21:36.281Z,7.98
2023-02-15T09:24:08.982Z,8.51
2023-02-15T09:26:39.047Z,8.84
2023-02-15T09:29:05.634Z,8.22
2023-02-15T09:31:35.039Z,9.15
2023-02-15T09:34:02.700Z,9.06
2023-02-15T09:36:32.456Z,8.46
2023-02-15T09:39:09.798Z,9.08
2023-02-15T09:42:01.277Z,9.46
2023-02-15T09:44:49.294Z,9.41
2023-02-15T09:47:23.721Z,9.93
2023-02-15T09:50:09.392Z,10.23
2023-02-15T09:52:54.488Z,10.82
2023-02-15T09:56:15.066Z,10.76
2023-02-15T09:58:41.700Z,10.79
2023-02-15T10:01:25.799Z,11.30
2023-02-15T10:04:20.374Z,10.76
2023-02-15T10:07:02.741Z,10.80
2023-02-15T10:10:07.600Z,11.19
2023-02-15T10:12:48.217Z,10.85
2023-02-15T10:15:52.977Z,10.97
2023-02-15T10:18:40.946Z,11.70
2023-02-15T10:21:41.294Z,12.02
2023-02-15T10:24:22.237Z,11.65
2023-02-15T10:26:49.669Z,11.96
2023-02-15T10:29:37.515Z,12.54
2023-02-15T10:32:16.532Z,12.56
2023-02-15T10:34:53.711Z,13.24
2023-02-15T10:37:47.667Z,12.65
2023-02-15T10:40:17.011Z,13.09
2023-02-15T10:42:59.266Z,13.36
2023-02-15T10:46:01.588Z,12.89
2023-02-15T10:48:52.254Z,11.75
2023-02-15T10:51:32.917Z,13.07
2023-02-15T10:54:07.054Z,14.10
2023-02-15T10:56:33.492Z,14.48
2023-02-15T10:59:11.860Z,13.81
2023-02-15T11:02:00.045Z,13.88
2023-02-15T11:04:51.377Z,13.48
2023-02-15T11:07:29.567Z,13.28
2023-02-15T11:10:06.476Z,14.09
2023-02-15T11:12:34.365Z,14.30
2023-02-15T11:15:29.298Z,13.71
2023-02-15T11:18:14.562Z,14.23
2023-02-15T11:20:58.994Z,14.28
2023-02-15T11:23:28.164Z,14.10
2023-02-15T11:25:57.803Z,14.13
2023-02-15T11:28:32.360Z,14.26
2023-02-15T11:31:02.272Z,14.68
2023-02-15T11:33:35.129Z,14.60
2023-02-15T11:36:10.494Z,14.33
2023-02-15T11:38:37.563Z,14.73
2023-02-15T11:41:12.251Z,14.36
2023-02-15T11:43:49.054Z,14.28
2023-02-15T11:46:15.918Z,14.37
2023-02-15T11:48:43.473Z,14.45
2023-02-15T11:51:15.061Z,13.91
2023-02-15T11:53:41.657Z,14.29
2023-02-15T11:56:15.573Z,14.09
2023-02-15T11:58:52.141Z,14.63
2023-02-15T12:01:45.660Z,14.65
2023-02-15T12:04:20.821Z,14.58
2023-02-15T12:07:02.898Z,14.88
2023-02-15T12:09:55.187Z,15.77
2023-02-15T12:12:30.994Z,15.88
2023-02-15T12:15:03.798Z,16.08
2023-02-15T12:17:49.233Z,15.25
2023-02-15T12:20:15.677Z,15.63
2023-02-15T12:22:53.252Z,15.96
2023-02-15T12:25:28.637Z,15.75
2023-02-15T12:27:55.921Z,16.46
2023-02-15T12:30:37.809Z,15.26
2023-02-15T12:33:18.094Z,15.81
2023-02-15T12:35:45.170Z,16.39
2023-02-15T12:38:11.598Z,15.61
2023-02-15T12:40:39.439Z,15.78
2023-02-15T12:43:11.887Z,16.44
2023-02-15T12:45:39.327Z,16.31
2023-02-15T12:48:19.459Z,16.34
2023-02-15T12:51:06.353Z,16.37
2023-02-15T12:53:36.267Z,16.64
2023-02-15T12:56:05.949Z,16.32
2023-02-15T12:58:38.233Z,16.96
2023-02-15T13:01:18.630Z,17.21
2023-02-15T13:04:07.204Z,16.84
2023-02-15T13:06:36.555Z,17.14
2023-02-15T13:09:16.267Z,16.75
2023-02-15T13:11:45.093Z,16.30
2023-02-15T13:14:23.039Z,16.65
2023-02-15T13:16:53.599Z,16.48
2023-02-15T13:19:22.814Z,16.74
2023-02-15T13:21:52.576Z,16.22
2023-02-15T13:24:24.848Z,16.32
2023-02-15T13:26:55.961Z,16.61
2023-02-15T13:29:29.178Z,16.38
2023-02-15T13:31:58.538Z,15.83
2023-02-15T13:34:31.253Z,16.05
2023-02-15T13:37:06.771Z,16.26
2023-02-15T13:39:41.774Z,16.58
2023-02-15T13:42:26.285Z,16.35
2023-02-15T13:45:18.187Z,16.25
2023-02-15T13:47:44.615Z,16.12
2023-02-15T13:50:17.016Z,16.06
2023-02-15T13:52:56.686Z,15.62
2023-02-15T13:55:51.035Z,15.31
2023-02-15T13:58:20.255Z,15.52
2023-02-15T14:00:53.008Z,15.21
2023-02-15T14:03:57.261Z,15.29
2023-02-15T14:06:59.891Z,14.90
2023-02-15T14:10:07.731Z,14.72
2023-02-15T14:12:54.885Z,14.88
2023-02-15T14:15:39.215Z,14.49
2023-02-15T14:18:20.771Z,14.32
2023-02-15T14:20:57.944Z,13.98
2023-02-15T14:23:31.850Z,13.75
2023-02-15T14:26:18.138Z,13.94
2023-02-15T14:29:11.812Z,13.58
2023-02-15T14:31:43.718Z,13.70
2023-02-15T14:34:49.667Z,13.49
2023-02-15T14:37:23.434Z,13.20
2023-02-15T14:40:17.789Z,13.06
2023-02-15T14:42:57.133Z,13.01
2023-02-15T14:45:32.630Z,12.88
2023-02-15T14:48:12.575Z,12.77
2023-02-15T14:50:45.862Z,12.62
2023-02-15T14:53:30.825Z,12.62
2023-02-15T14:56:08.983Z,12.34
2023-02-15T14:58:36.334Z,12.25
2023-02-15T15:01:11.410Z,12.13
2023-02-15T15:03:49.732Z,12.21
2023-02-15T15:06:30.014Z,12.00
2023-02-15T15:09:02.244Z,11.86
2023-02-15T15:11:41.130Z,11.89
2023-02-15T15:14:10.084Z,11.97
2023-02-15T15:16:36.707Z,11.97
2023-02-15T15:19:05.367Z,11.95
2023-02-15T15:21:49.854Z,11.93
2023-02-15T15:24:38.328Z,11.77
2023-02-15T15:27:39.025Z,11.80
2023-02-15T15:30:25.779Z,11.72
2023-02-15T15:33:00.000Z,11.77
2023-02-15T15:36:04.269Z,11.70
2023-02-15T15:38:45.834Z,11.68
2023-02-15T15:41:20.981Z,11.67
2023-02-15T15:44:08.775Z,11.59
2023-02-15T15:46:53.648Z,11.43
2023-02-15T15:49:22.354Z,11.49
2023-02-15T15:51:49.932Z,11.26
2023-02-15T15:54:19.679Z,11.23
2023-02-15T15:56:52.032Z,11.23
2023-02-15T15:59:32.182Z,11.12
2023-02-15T16:02:12.361Z,10.93
2023-02-15T16:04:38.882Z,10.90
2023-02-15T16:07:18.495Z,10.76
2023-02-15T16:10:01.882Z,10.79
2023-02-15T16:12:31.665Z,10.75
2023-02-15T16:14:59.300Z,10.71
2023-02-15T16:17:28.970Z,10.65
2023-02-15T16:20:32.673Z,10.62
2023-02-15T16:23:20.714Z,10.61
2023-02-15T16:26:33.822Z,10.55
2023-02-15T16:29:00.418Z,10.48
2023-02-15T16:31:26.942Z,10.36
2023-02-15T16:33:56.086Z,10.30
2023-02-15T16:36:27.854Z,10.24
2023-02-15T16:38:57.393Z,10.15
2023-02-15T16:41:29.489Z,10.17
2023-02-15T16:44:00.241Z,10.07
2023-02-15T16:46:34.134Z,10.09
2023-02-15T16:49:05.418Z,10.00
2023-02-15T16:51:35.130Z,9.94
2023-02-15T16:54:07.205Z,9.87
2023-02-15T16:56:34.885Z,9.71
2023-02-15T16:59:02.348Z,9.73
2023-02-15T17:01:32.077Z,9.64
2023-02-15T17:04:21.098Z,9.58
2023-02-15T17:07:18.349Z,9.53
2023-02-15T17:09:56.461Z,9.44
2023-02-15T17:12:56.241Z,9.35
2023-02-15T17:15:34.085Z,9.40
2023-02-15T17:18:08.236Z,9.40
2023-02-15T17:20:37.474Z,9.15
2023-02-15T17:23:04.893Z,9.20
2023-02-15T17:25:40.509Z,9.10
2023-02-15T17:28:18.362Z,8.91
2023-02-15T17:30:47.302Z,8.94
2023-02-15T17:33:37.829Z,8.94
2023-02-15T17:36:10.726Z,8.76
2023-02-15T17:38:39.697Z,8.76
2023-02-15T17:41:07.567Z,8.60
2023-02-15T17:43:34.995Z,8.64
2023-02-15T17:46:03.024Z,8.60
2023-02-15T17:48:37.124Z,8.68
2023-02-15T17:51:06.363Z,8.60
2023-02-15T17:53:33.494Z,8.56
2023-02-15T17:56:00.021Z,8.45
2023-02-15T17:58:27.156Z,8.35
2023-02-15T18:01:16.905Z,8.38
2023-02-15T18:04:04.203Z,8.28
2023-02-15T18:06:49.253Z,8.03
2023-02-15T18:09:37.573Z,8.13
2023-02-15T18:12:15.628Z,7.98
2023-02-15T18:14:42.136Z,7.97
2023-02-15T18:17:13.860Z,7.95
2023-02-15T18:19:42.014Z,7.99
2023-02-15T18:22:13.444Z,7.83
2023-02-15T18:24:39.962Z,7.98
2023-02-15T18:27:06.630Z,7.84
2023-02-15T18:29:33.201Z,7.86
2023-02-15T18:32:01.514Z,7.90
2023-02-15T18:34:40.595Z,7.81
2023-02-15T18:37:14.196Z,7.67
2023-02-15T18:39:46.890Z,7.68
2023-02-15T18:42:23.517Z,7.55
2023-02-15T18:44:54.362Z,7.42
2023-02-15T18:47:20.853Z,7.40
2023-02-15T18:49:48.095Z,7.46
2023-02-15T18:52:21.812Z,7.44
2023-02-15T18:54:53.173Z,7.30
2023-02-15T18:57:20.141Z,7.36
2023-02-15T18:59:46.686Z,7.40
2023-02-15T19:02:15.051Z,7.39
2023-02-15T19:04:42.125Z,7.40
2023-02-15T19:07:22.396Z,7.27
2023-02-15T19:09:52.976Z,7.14
2023-02-15T19:12:20.131Z,7.15
2023-02-15T19:14:46.942Z,7.13
2023-02-15T19:17:18.480Z,7.04
2023-02-15T19:19:46.132Z,7.07
2023-02-15T19:22:16.972Z,7.00
2023-02-15T19:24:45.884Z,6.94
2023-02-15T19:27:31.948Z,6.89
2023-02-15T19:30:07.713Z,6.79
2023-02-15T19:32:34.203Z,6.75
2023-02-15T19:35:00.645Z,6.71
2023-02-15T19:37:37.090Z,6.60
2023-02-15T19:40:05.693Z,6.70
2023-02-15T19:42:34.999Z,6.60
2023-02-15T19:45:01.555Z,6.60
2023-02-15T19:47:28.454Z,6.62
2023-02-15T19:50:00.327Z,6.65
2023-02-15T19:52:27.549Z,6.59
2023-02-15T19:54:55.357Z,6.55
2023-02-15T19:57:22.483Z,6.54
2023-02-15T19:59:49.132Z,6.37
2023-02-15T20:02:18.968Z,6.25
2023-02-15T20:04:46.260Z,6.26
2023-02-15T20:07:25.261Z,6.28
2023-02-15T20:09:52.074Z,6.18
2023-02-15T20:12:27.266Z,6.24
2023-02-15T20:14:54.098Z,6.20
2023-02-15T20:17:20.771Z,6.08
2023-02-15T20:19:47.357Z,5.99
2023-02-15T20:22:25.719Z,5.94
2023-02-15T20:24:55.622Z,5.87
2023-02-15T20:27:22.358Z,5.81
2023-02-15T20:29:50.528Z,5.74
2023-02-15T20:32:17.237Z,5.67
2023-02-15T20:34:43.823Z,5.78
2023-02-15T20:37:23.785Z,5.71
2023-02-15T20:39:51.030Z,5.71
2023-02-15T20:42:18.603Z,5.75
2023-02-15T20:44:45.078Z,5.85
2023-02-15T20:47:11.518Z,5.75
2023-02-15T20:49:38.694Z,5.75
2023-02-15T20:52:20.715Z,5.82
2023-02-15T20:54:47.366Z,5.67
2023-02-15T20:57:14.230Z,5.59
2023-02-15T20:59:41.306Z,5.64
2023-02-15T21:02:23.965Z,5.58
2023-02-15T21:04:50.566Z,5.66
2023-02-15T21:07:19.564Z,5.56
2023-02-15T21:09:47.080Z,5.33
2023-02-15T21:12:18.500Z,5.41
2023-02-15T21:14:45.741Z,5.33
2023-02-15T21:17:17.240Z,5.30
2023-02-15T21:19:44.323Z,5.37
2023-02-15T21:22:13.471Z,5.43
2023-02-15T21:24:47.368Z,5.42
2023-02-15T21:27:14.309Z,5.49
2023-02-15T21:29:40.820Z,5.45
2023-02-15T21:32:08.626Z,5.39
2023-02-15T21:34:35.526Z,5.26
2023-02-15T21:37:02.078Z,5.27
2023-02-15T21:39:30.239Z,5.19
2023-02-15T21:42:14.944Z,5.18
2023-02-15T21:44:59.733Z,5.15
2023-02-15T21:47:49.644Z,5.18
2023-02-15T21:50:40.965Z,5.16
2023-02-15T21:53:18.623Z,5.09
2023-02-15T21:55:45.095Z,5.03
2023-02-15T21:58:21.146Z,4.96
2023-02-15T22:00:49.096Z,4.89
2023-02-15T22:03:16.252Z,4.86
2023-02-15T22:05:42.769Z,4.87
2023-02-15T22:08:13.308Z,4.94
2023-02-15T22:10:40.953Z,5.01
2023-02-15T22:13:28.362Z,4.94
2023-02-15T22:15:56.044Z,4.97
2023-02-15T22:18:25.900Z,5.04
2023-02-15T22:20:53.193Z,4.99
2023-02-15T22:23:19.771Z,4.92
2023-02-15T22:25:59.040Z,4.97
2023-02-15T22:28:34.919Z,4.91
2023-02-15T22:31:03.101Z,4.97
2023-02-15T22:33:32.654Z,4.98
2023-02-15T22:36:00.209Z,5.10
2023-02-15T22:38:26.974Z,4.94
2023-02-15T22:40:56.441Z,4.97
2023-02-15T22:43:35.097Z,4.77
2023-02-15T22:46:05.384Z,4.78
2023-02-15T22:48:31.982Z,4.69
2023-02-15T22:50:58.626Z,4.73
2023-02-15T22:53:25.321Z,4.52
2023-02-15T22:55:53.428Z,4.73
2023-02-15T22:58:24.687Z,4.58
2023-02-15T23:00:51.418Z,4.58
2023-02-15T23:03:23.335Z,4.54
2023-02-15T23:05:50.293Z,4.50
2023-02-15T23:08:17.335Z,4.52
2023-02-15T23:10:55.358Z,4.54
2023-02-15T23:13:33.000Z,4.52
2023-02-15T23:16:01.808Z,4.45
2023-02-15T23:18:32.752Z,4.34
2023-02-15T23:21:02.255Z,4.40
2023-02-15T23:23:34.168Z,4.51
2023-02-15T23:26:04.133Z,4.49
2023-02-15T23:28:35.544Z,4.44
2023-02-15T23:31:02.716Z,4.37
2023-02-15T23:33:33.793Z,4.41
2023-02-15T23:36:00.318Z,4.37
2023-02-15T23:38:29.847Z,4.33
2023-02-15T23:41:21.174Z,4.33
2023-02-15T23:43:56.843Z,4.31
2023-02-15T23:46:45.349Z,4.28
2023-02-15T23:49:17.194Z,4.17
2023-02-15T23:51:47.288Z,4.17
2023-02-15T23:54:15.045Z,4.05
2023-02-15T23:56:44.205Z,4.20
2023-02-15T23:59:19.441Z,4.11
